sensor_id;sensor_type;location;lat;lon;timestamp;P1;durP1;ratioP1;P2;durP2;ratioP2
56159;SDS011;42043;46.052;13.612;2022-07-03T00:01:23;5.97;;;0.80;;
56159;SDS011;42043;46.052;13.612;2022-07-03T00:03:49;3.72;;;1.10;;
56159;SDS011;42043;46.052;13.612;2022-07-03T00:06:15;7.22;;;1.00;;
56159;SDS011;42043;46.052;13.612;2022-07-03T00:08:42;3.55;;;0.90;;
56159;SDS011;42043;46.052;13.612;2022-07-03T00:11:08;5.03;;;1.20;;
56159;SDS011;42043;46.052;13.612;2022-07-03T00:13:35;6.15;;;0.80;;
56159;SDS011;42043;46.052;13.612;2022-07-03T00:16:01;2.70;;;0.80;;
56159;SDS011;42043;46.052;13.612;2022-07-03T00:18:27;7.88;;;0.80;;
56159;SDS011;42043;46.052;13.612;2022-07-03T00:20:55;6.75;;;1.08;;
56159;SDS011;42043;46.052;13.612;2022-07-03T00:23:26;3.42;;;0.93;;
56159;SDS011;42043;46.052;13.612;2022-07-03T00:25:55;2.13;;;0.80;;
56159;SDS011;42043;46.052;13.612;2022-07-03T00:28:22;1.90;;;0.77;;
56159;SDS011;42043;46.052;13.612;2022-07-03T00:30:49;4.72;;;1.08;;
56159;SDS011;42043;46.052;13.612;2022-07-03T00:33:17;5.68;;;0.80;;
56159;SDS011;42043;46.052;13.612;2022-07-03T00:35:45;3.33;;;0.80;;
56159;SDS011;42043;46.052;13.612;2022-07-03T00:38:13;2.70;;;1.00;;
56159;SDS011;42043;46.052;13.612;2022-07-03T00:40:39;6.47;;;0.90;;
56159;SDS011;42043;46.052;13.612;2022-07-03T00:43:05;3.00;;;0.80;;
56159;SDS011;42043;46.052;13.612;2022-07-03T00:45:34;4.50;;;0.93;;
56159;SDS011;42043;46.052;13.612;2022-07-03T00:48:00;2.28;;;0.80;;
56159;SDS011;42043;46.052;13.612;2022-07-03T00:50:32;3.90;;;1.00;;
56159;SDS011;42043;46.052;13.612;2022-07-03T00:53:01;1.95;;;0.80;;
56159;SDS011;42043;46.052;13.612;2022-07-03T00:55:28;2.22;;;0.95;;
56159;SDS011;42043;46.052;13.612;2022-07-03T00:57:55;5.90;;;1.05;;
56159;SDS011;42043;46.052;13.612;2022-07-03T01:00:22;1.75;;;0.80;;
56159;SDS011;42043;46.052;13.612;2022-07-03T01:02:56;2.72;;;0.90;;
56159;SDS011;42043;46.052;13.612;2022-07-03T01:10:54;4.90;;;0.80;;
56159;SDS011;42043;46.052;13.612;2022-07-03T01:26:39;3.50;;;0.70;;
56159;SDS011;42043;46.052;13.612;2022-07-03T01:29:08;5.82;;;0.90;;
56159;SDS011;42043;46.052;13.612;2022-07-03T01:31:38;4.40;;;0.90;;
56159;SDS011;42043;46.052;13.612;2022-07-03T01:34:06;3.08;;;0.80;;
56159;SDS011;42043;46.052;13.612;2022-07-03T01:36:40;3.95;;;0.70;;
56159;SDS011;42043;46.052;13.612;2022-07-03T01:39:09;3.33;;;0.60;;
56159;SDS011;42043;46.052;13.612;2022-07-03T01:41:37;5.68;;;1.00;;
56159;SDS011;42043;46.052;13.612;2022-07-03T01:44:03;4.15;;;0.70;;
56159;SDS011;42043;46.052;13.612;2022-07-03T01:46:31;1.95;;;0.95;;
56159;SDS011;42043;46.052;13.612;2022-07-03T01:48:58;4.00;;;0.90;;
56159;SDS011;42043;46.052;13.612;2022-07-03T01:51:25;5.07;;;1.10;;
56159;SDS011;42043;46.052;13.612;2022-07-03T01:53:52;9.40;;;1.13;;
56159;SDS011;42043;46.052;13.612;2022-07-03T01:56:21;6.65;;;0.90;;
56159;SDS011;42043;46.052;13.612;2022-07-03T01:58:48;4.32;;;1.00;;
56159;SDS011;42043;46.052;13.612;2022-07-03T02:01:21;2.63;;;0.82;;
56159;SDS011;42043;46.052;13.612;2022-07-03T02:04:28;2.92;;;0.90;;
56159;SDS011;42043;46.052;13.612;2022-07-03T02:09:44;2.00;;;0.65;;
56159;SDS011;42043;46.052;13.612;2022-07-03T02:12:12;3.70;;;1.00;;
56159;SDS011;42043;46.052;13.612;2022-07-03T02:14:40;4.75;;;0.80;;
56159;SDS011;42043;46.052;13.612;2022-07-03T02:17:13;1.83;;;0.90;;
56159;SDS011;42043;46.052;13.612;2022-07-03T02:19:43;3.88;;;0.90;;
56159;SDS011;42043;46.052;13.612;2022-07-03T02:22:30;6.05;;;0.93;;
56159;SDS011;42043;46.052;13.612;2022-07-03T02:25:05;3.97;;;0.93;;
56159;SDS011;42043;46.052;13.612;2022-07-03T02:30:13;4.82;;;0.85;;
56159;SDS011;42043;46.052;13.612;2022-07-03T02:32:44;3.42;;;0.82;;
56159;SDS011;42043;46.052;13.612;2022-07-03T02:35:17;2.78;;;0.70;;
56159;SDS011;42043;46.052;13.612;2022-07-03T02:38:02;5.80;;;0.77;;
56159;SDS011;42043;46.052;13.612;2022-07-03T02:46:15;1.98;;;0.80;;
56159;SDS011;42043;46.052;13.612;2022-07-03T02:49:08;1.75;;;0.80;;
56159;SDS011;42043;46.052;13.612;2022-07-03T02:51:44;4.22;;;0.73;;
56159;SDS011;42043;46.052;13.612;2022-07-03T02:54:14;1.83;;;0.82;;
56159;SDS011;42043;46.052;13.612;2022-07-03T02:57:01;4.82;;;0.93;;
56159;SDS011;42043;46.052;13.612;2022-07-03T02:59:42;2.97;;;0.77;;
56159;SDS011;42043;46.052;13.612;2022-07-03T03:10:58;7.50;;;0.95;;
56159;SDS011;42043;46.052;13.612;2022-07-03T03:13:30;2.42;;;0.77;;
56159;SDS011;42043;46.052;13.612;2022-07-03T03:15:58;7.40;;;1.00;;
56159;SDS011;42043;46.052;13.612;2022-07-03T03:18:30;3.53;;;0.88;;
56159;SDS011;42043;46.052;13.612;2022-07-03T03:20:59;7.93;;;1.20;;
56159;SDS011;42043;46.052;13.612;2022-07-03T03:25:57;2.43;;;0.80;;
56159;SDS011;42043;46.052;13.612;2022-07-03T03:28:24;3.53;;;0.98;;
56159;SDS011;42043;46.052;13.612;2022-07-03T03:30:51;5.28;;;1.00;;
56159;SDS011;42043;46.052;13.612;2022-07-03T03:33:17;6.53;;;1.05;;
56159;SDS011;42043;46.052;13.612;2022-07-03T03:35:45;2.03;;;0.80;;
56159;SDS011;42043;46.052;13.612;2022-07-03T03:38:12;7.00;;;0.93;;
56159;SDS011;42043;46.052;13.612;2022-07-03T03:40:38;4.65;;;1.00;;
56159;SDS011;42043;46.052;13.612;2022-07-03T03:43:04;3.78;;;0.90;;
56159;SDS011;42043;46.052;13.612;2022-07-03T03:45:30;4.00;;;1.10;;
56159;SDS011;42043;46.052;13.612;2022-07-03T03:47:56;4.53;;;1.05;;
56159;SDS011;42043;46.052;13.612;2022-07-03T03:50:22;5.07;;;0.90;;
56159;SDS011;42043;46.052;13.612;2022-07-03T03:52:49;3.95;;;0.82;;
56159;SDS011;42043;46.052;13.612;2022-07-03T03:55:16;5.57;;;1.00;;
56159;SDS011;42043;46.052;13.612;2022-07-03T03:57:42;3.83;;;0.88;;
56159;SDS011;42043;46.052;13.612;2022-07-03T04:00:08;5.43;;;0.90;;
56159;SDS011;42043;46.052;13.612;2022-07-03T04:02:34;4.47;;;0.70;;
56159;SDS011;42043;46.052;13.612;2022-07-03T04:05:00;4.43;;;0.90;;
56159;SDS011;42043;46.052;13.612;2022-07-03T04:07:26;3.38;;;1.10;;
56159;SDS011;42043;46.052;13.612;2022-07-03T04:09:52;4.05;;;0.90;;
56159;SDS011;42043;46.052;13.612;2022-07-03T04:12:18;2.30;;;0.70;;
56159;SDS011;42043;46.052;13.612;2022-07-03T04:14:44;4.60;;;0.93;;
56159;SDS011;42043;46.052;13.612;2022-07-03T04:17:10;6.38;;;1.02;;
56159;SDS011;42043;46.052;13.612;2022-07-03T04:19:36;2.05;;;0.88;;
56159;SDS011;42043;46.052;13.612;2022-07-03T04:22:02;3.92;;;0.95;;
56159;SDS011;42043;46.052;13.612;2022-07-03T04:24:36;3.65;;;1.10;;
56159;SDS011;42043;46.052;13.612;2022-07-03T04:27:02;3.72;;;0.90;;
56159;SDS011;42043;46.052;13.612;2022-07-03T04:29:29;3.22;;;0.85;;
56159;SDS011;42043;46.052;13.612;2022-07-03T04:31:55;3.78;;;0.80;;
56159;SDS011;42043;46.052;13.612;2022-07-03T04:34:21;4.43;;;0.85;;
56159;SDS011;42043;46.052;13.612;2022-07-03T04:36:47;4.28;;;1.10;;
56159;SDS011;42043;46.052;13.612;2022-07-03T04:39:13;8.32;;;0.90;;
56159;SDS011;42043;46.052;13.612;2022-07-03T04:41:39;3.45;;;0.88;;
56159;SDS011;42043;46.052;13.612;2022-07-03T04:44:05;1.88;;;0.80;;
56159;SDS011;42043;46.052;13.612;2022-07-03T04:46:31;4.07;;;0.90;;
56159;SDS011;42043;46.052;13.612;2022-07-03T04:48:57;2.67;;;0.90;;
56159;SDS011;42043;46.052;13.612;2022-07-03T04:51:23;5.55;;;1.00;;
56159;SDS011;42043;46.052;13.612;2022-07-03T04:53:49;3.67;;;0.85;;
56159;SDS011;42043;46.052;13.612;2022-07-03T04:56:15;2.97;;;0.90;;
56159;SDS011;42043;46.052;13.612;2022-07-03T04:58:41;4.18;;;1.02;;
56159;SDS011;42043;46.052;13.612;2022-07-03T05:01:07;4.82;;;0.80;;
56159;SDS011;42043;46.052;13.612;2022-07-03T05:03:33;1.35;;;0.70;;
56159;SDS011;42043;46.052;13.612;2022-07-03T05:05:59;3.92;;;0.82;;
56159;SDS011;42043;46.052;13.612;2022-07-03T05:08:27;4.68;;;0.90;;
56159;SDS011;42043;46.052;13.612;2022-07-03T05:10:53;2.25;;;0.80;;
56159;SDS011;42043;46.052;13.612;2022-07-03T05:13:19;2.13;;;1.10;;
56159;SDS011;42043;46.052;13.612;2022-07-03T05:15:45;3.92;;;1.05;;
56159;SDS011;42043;46.052;13.612;2022-07-03T05:18:12;3.40;;;0.93;;
56159;SDS011;42043;46.052;13.612;2022-07-03T05:20:38;5.57;;;1.00;;
56159;SDS011;42043;46.052;13.612;2022-07-03T05:23:04;3.30;;;0.90;;
56159;SDS011;42043;46.052;13.612;2022-07-03T05:25:30;2.42;;;0.82;;
56159;SDS011;42043;46.052;13.612;2022-07-03T05:27:57;3.80;;;1.00;;
56159;SDS011;42043;46.052;13.612;2022-07-03T05:30:24;4.90;;;0.98;;
56159;SDS011;42043;46.052;13.612;2022-07-03T05:32:51;5.47;;;0.90;;
56159;SDS011;42043;46.052;13.612;2022-07-03T05:35:17;3.90;;;1.00;;
56159;SDS011;42043;46.052;13.612;2022-07-03T05:37:43;6.68;;;1.08;;
56159;SDS011;42043;46.052;13.612;2022-07-03T05:40:10;4.00;;;0.77;;
56159;SDS011;42043;46.052;13.612;2022-07-03T05:42:36;4.10;;;1.10;;
56159;SDS011;42043;46.052;13.612;2022-07-03T05:45:02;2.50;;;0.80;;
56159;SDS011;42043;46.052;13.612;2022-07-03T05:47:29;9.82;;;1.08;;
56159;SDS011;42043;46.052;13.612;2022-07-03T05:49:55;5.72;;;1.10;;
56159;SDS011;42043;46.052;13.612;2022-07-03T05:52:21;2.60;;;1.00;;
56159;SDS011;42043;46.052;13.612;2022-07-03T05:54:48;3.33;;;0.85;;
56159;SDS011;42043;46.052;13.612;2022-07-03T05:57:14;4.05;;;0.88;;
56159;SDS011;42043;46.052;13.612;2022-07-03T05:59:40;7.45;;;1.13;;
56159;SDS011;42043;46.052;13.612;2022-07-03T06:02:06;4.90;;;1.10;;
56159;SDS011;42043;46.052;13.612;2022-07-03T06:04:33;7.30;;;1.13;;
56159;SDS011;42043;46.052;13.612;2022-07-03T06:06:59;9.02;;;1.10;;
56159;SDS011;42043;46.052;13.612;2022-07-03T06:09:25;2.65;;;0.90;;
56159;SDS011;42043;46.052;13.612;2022-07-03T06:11:51;3.20;;;1.00;;
56159;SDS011;42043;46.052;13.612;2022-07-03T06:14:17;5.85;;;1.05;;
56159;SDS011;42043;46.052;13.612;2022-07-03T06:16:43;4.78;;;1.00;;
56159;SDS011;42043;46.052;13.612;2022-07-03T06:19:09;3.17;;;0.98;;
56159;SDS011;42043;46.052;13.612;2022-07-03T06:21:35;5.32;;;0.90;;
56159;SDS011;42043;46.052;13.612;2022-07-03T06:24:01;1.33;;;0.90;;
56159;SDS011;42043;46.052;13.612;2022-07-03T06:26:27;6.00;;;1.48;;
56159;SDS011;42043;46.052;13.612;2022-07-03T06:28:54;2.45;;;0.90;;
56159;SDS011;42043;46.052;13.612;2022-07-03T06:31:20;6.03;;;1.10;;
56159;SDS011;42043;46.052;13.612;2022-07-03T06:33:47;2.15;;;0.80;;
56159;SDS011;42043;46.052;13.612;2022-07-03T06:36:13;4.95;;;0.80;;
56159;SDS011;42043;46.052;13.612;2022-07-03T06:38:39;3.92;;;0.82;;
56159;SDS011;42043;46.052;13.612;2022-07-03T06:41:05;3.97;;;0.90;;
56159;SDS011;42043;46.052;13.612;2022-07-03T06:43:31;3.88;;;1.00;;
56159;SDS011;42043;46.052;13.612;2022-07-03T06:45:57;3.88;;;0.95;;
56159;SDS011;42043;46.052;13.612;2022-07-03T06:48:23;2.72;;;1.00;;
56159;SDS011;42043;46.052;13.612;2022-07-03T06:50:49;3.67;;;0.85;;
56159;SDS011;42043;46.052;13.612;2022-07-03T06:53:15;2.97;;;1.00;;
56159;SDS011;42043;46.052;13.612;2022-07-03T06:55:41;7.95;;;1.00;;
56159;SDS011;42043;46.052;13.612;2022-07-03T06:58:07;5.07;;;1.00;;
56159;SDS011;42043;46.052;13.612;2022-07-03T07:00:33;4.10;;;1.00;;
56159;SDS011;42043;46.052;13.612;2022-07-03T07:02:59;4.75;;;1.00;;
56159;SDS011;42043;46.052;13.612;2022-07-03T07:05:25;3.88;;;0.90;;
56159;SDS011;42043;46.052;13.612;2022-07-03T07:07:51;5.03;;;0.70;;
56159;SDS011;42043;46.052;13.612;2022-07-03T07:10:17;5.13;;;1.02;;
56159;SDS011;42043;46.052;13.612;2022-07-03T07:12:43;5.03;;;0.88;;
56159;SDS011;42043;46.052;13.612;2022-07-03T07:15:10;2.95;;;0.90;;
56159;SDS011;42043;46.052;13.612;2022-07-03T07:17:36;1.13;;;0.80;;
56159;SDS011;42043;46.052;13.612;2022-07-03T07:20:02;6.68;;;1.10;;
56159;SDS011;42043;46.052;13.612;2022-07-03T07:22:29;5.28;;;0.90;;
56159;SDS011;42043;46.052;13.612;2022-07-03T07:24:55;9.32;;;1.10;;
56159;SDS011;42043;46.052;13.612;2022-07-03T07:27:21;3.38;;;1.00;;
56159;SDS011;42043;46.052;13.612;2022-07-03T07:29:47;4.30;;;0.90;;
56159;SDS011;42043;46.052;13.612;2022-07-03T07:32:13;4.15;;;0.80;;
56159;SDS011;42043;46.052;13.612;2022-07-03T07:34:39;3.70;;;0.80;;
56159;SDS011;42043;46.052;13.612;2022-07-03T07:37:05;4.07;;;1.00;;
56159;SDS011;42043;46.052;13.612;2022-07-03T07:39:31;2.80;;;0.95;;
56159;SDS011;42043;46.052;13.612;2022-07-03T07:41:57;2.05;;;0.80;;
56159;SDS011;42043;46.052;13.612;2022-07-03T07:44:24;3.80;;;0.90;;
56159;SDS011;42043;46.052;13.612;2022-07-03T07:46:49;5.72;;;0.82;;
56159;SDS011;42043;46.052;13.612;2022-07-03T07:49:16;3.88;;;0.98;;
56159;SDS011;42043;46.052;13.612;2022-07-03T07:51:42;3.03;;;0.88;;
56159;SDS011;42043;46.052;13.612;2022-07-03T07:54:08;6.07;;;1.05;;
56159;SDS011;42043;46.052;13.612;2022-07-03T07:56:34;3.40;;;0.90;;
56159;SDS011;42043;46.052;13.612;2022-07-03T07:59:00;4.40;;;1.00;;
56159;SDS011;42043;46.052;13.612;2022-07-03T08:01:26;5.20;;;0.88;;
56159;SDS011;42043;46.052;13.612;2022-07-03T08:04:10;4.95;;;1.25;;
56159;SDS011;42043;46.052;13.612;2022-07-03T08:06:55;3.53;;;0.93;;
56159;SDS011;42043;46.052;13.612;2022-07-03T08:09:21;9.35;;;1.20;;
56159;SDS011;42043;46.052;13.612;2022-07-03T08:11:47;8.05;;;1.05;;
56159;SDS011;42043;46.052;13.612;2022-07-03T08:14:13;4.60;;;1.00;;
56159;SDS011;42043;46.052;13.612;2022-07-03T08:16:39;5.68;;;0.90;;
56159;SDS011;42043;46.052;13.612;2022-07-03T08:19:06;3.22;;;0.90;;
56159;SDS011;42043;46.052;13.612;2022-07-03T08:21:32;3.70;;;0.80;;
56159;SDS011;42043;46.052;13.612;2022-07-03T08:23:58;3.72;;;1.10;;
56159;SDS011;42043;46.052;13.612;2022-07-03T08:26:24;4.18;;;0.98;;
56159;SDS011;42043;46.052;13.612;2022-07-03T08:28:50;2.75;;;0.90;;
56159;SDS011;42043;46.052;13.612;2022-07-03T08:31:16;11.18;;;1.00;;
56159;SDS011;42043;46.052;13.612;2022-07-03T08:33:42;8.07;;;1.20;;
56159;SDS011;42043;46.052;13.612;2022-07-03T08:36:08;6.25;;;1.05;;
56159;SDS011;42043;46.052;13.612;2022-07-03T08:38:34;2.13;;;0.80;;
56159;SDS011;42043;46.052;13.612;2022-07-03T08:41:01;6.50;;;1.27;;
56159;SDS011;42043;46.052;13.612;2022-07-03T08:43:29;5.00;;;1.23;;
56159;SDS011;42043;46.052;13.612;2022-07-03T08:45:55;3.95;;;1.25;;
56159;SDS011;42043;46.052;13.612;2022-07-03T08:48:24;5.32;;;1.00;;
56159;SDS011;42043;46.052;13.612;2022-07-03T08:50:52;3.30;;;1.05;;
56159;SDS011;42043;46.052;13.612;2022-07-03T08:53:19;3.17;;;1.45;;
56159;SDS011;42043;46.052;13.612;2022-07-03T08:55:47;3.83;;;1.05;;
56159;SDS011;42043;46.052;13.612;2022-07-03T08:58:14;5.43;;;1.10;;
56159;SDS011;42043;46.052;13.612;2022-07-03T09:00:43;2.63;;;1.10;;
56159;SDS011;42043;46.052;13.612;2022-07-03T09:03:10;3.05;;;1.10;;
56159;SDS011;42043;46.052;13.612;2022-07-03T09:05:37;4.95;;;1.10;;
56159;SDS011;42043;46.052;13.612;2022-07-03T09:08:06;6.75;;;1.20;;
56159;SDS011;42043;46.052;13.612;2022-07-03T09:10:33;4.75;;;1.30;;
56159;SDS011;42043;46.052;13.612;2022-07-03T09:12:59;4.25;;;1.17;;
56159;SDS011;42043;46.052;13.612;2022-07-03T09:15:25;4.88;;;1.08;;
56159;SDS011;42043;46.052;13.612;2022-07-03T09:18:10;4.38;;;1.30;;
56159;SDS011;42043;46.052;13.612;2022-07-03T09:20:38;3.63;;;1.20;;
56159;SDS011;42043;46.052;13.612;2022-07-03T09:23:09;4.40;;;1.02;;
56159;SDS011;42043;46.052;13.612;2022-07-03T09:25:49;3.42;;;1.20;;
56159;SDS011;42043;46.052;13.612;2022-07-03T09:28:44;4.53;;;1.50;;
56159;SDS011;42043;46.052;13.612;2022-07-03T09:31:21;6.05;;;1.38;;
56159;SDS011;42043;46.052;13.612;2022-07-03T09:33:59;5.68;;;1.40;;
56159;SDS011;42043;46.052;13.612;2022-07-03T09:36:45;6.80;;;1.17;;
56159;SDS011;42043;46.052;13.612;2022-07-03T09:39:26;3.88;;;1.17;;
56159;SDS011;42043;46.052;13.612;2022-07-03T09:42:07;5.10;;;1.45;;
56159;SDS011;42043;46.052;13.612;2022-07-03T09:44:41;7.43;;;1.50;;
56159;SDS011;42043;46.052;13.612;2022-07-03T09:47:15;7.47;;;1.35;;
56159;SDS011;42043;46.052;13.612;2022-07-03T09:49:54;4.47;;;1.10;;
56159;SDS011;42043;46.052;13.612;2022-07-03T09:52:29;6.78;;;1.10;;
56159;SDS011;42043;46.052;13.612;2022-07-03T09:57:34;5.18;;;1.30;;
56159;SDS011;42043;46.052;13.612;2022-07-03T10:00:35;7.18;;;1.30;;
56159;SDS011;42043;46.052;13.612;2022-07-03T10:03:08;7.25;;;1.42;;
56159;SDS011;42043;46.052;13.612;2022-07-03T10:05:36;3.22;;;1.20;;
56159;SDS011;42043;46.052;13.612;2022-07-03T10:08:08;2.78;;;1.42;;
56159;SDS011;42043;46.052;13.612;2022-07-03T10:10:43;7.72;;;1.63;;
56159;SDS011;42043;46.052;13.612;2022-07-03T10:13:10;6.95;;;1.60;;
56159;SDS011;42043;46.052;13.612;2022-07-03T10:15:40;8.38;;;1.50;;
56159;SDS011;42043;46.052;13.612;2022-07-03T10:18:08;5.60;;;1.25;;
56159;SDS011;42043;46.052;13.612;2022-07-03T10:23:08;4.53;;;1.08;;
56159;SDS011;42043;46.052;13.612;2022-07-03T10:25:35;5.78;;;1.15;;
56159;SDS011;42043;46.052;13.612;2022-07-03T10:28:15;4.28;;;1.20;;
56159;SDS011;42043;46.052;13.612;2022-07-03T10:30:48;4.57;;;1.42;;
56159;SDS011;42043;46.052;13.612;2022-07-03T10:33:18;8.77;;;1.50;;
56159;SDS011;42043;46.052;13.612;2022-07-03T10:46:33;15.70;;;3.00;;
56159;SDS011;42043;46.052;13.612;2022-07-03T11:07:27;6.65;;;1.88;;
56159;SDS011;42043;46.052;13.612;2022-07-03T11:12:55;6.03;;;1.80;;
56159;SDS011;42043;46.052;13.612;2022-07-03T11:26:18;4.53;;;1.30;;
56159;SDS011;42043;46.052;13.612;2022-07-03T11:31:19;4.82;;;1.40;;
56159;SDS011;42043;46.052;13.612;2022-07-03T11:34:00;4.47;;;1.55;;
56159;SDS011;42043;46.052;13.612;2022-07-03T11:36:33;4.13;;;1.20;;
56159;SDS011;42043;46.052;13.612;2022-07-03T11:44:01;3.70;;;1.33;;
56159;SDS011;42043;46.052;13.612;2022-07-03T11:46:29;3.75;;;1.20;;
56159;SDS011;42043;46.052;13.612;2022-07-03T11:49:10;7.73;;;1.60;;
56159;SDS011;42043;46.052;13.612;2022-07-03T11:52:11;6.72;;;1.70;;
56159;SDS011;42043;46.052;13.612;2022-07-03T11:54:49;4.60;;;1.20;;
56159;SDS011;42043;46.052;13.612;2022-07-03T11:57:19;5.88;;;1.45;;
56159;SDS011;42043;46.052;13.612;2022-07-03T12:00:05;3.38;;;1.30;;
56159;SDS011;42043;46.052;13.612;2022-07-03T12:02:31;5.35;;;1.40;;
56159;SDS011;42043;46.052;13.612;2022-07-03T12:04:57;5.45;;;1.30;;
56159;SDS011;42043;46.052;13.612;2022-07-03T12:07:23;2.13;;;1.27;;
56159;SDS011;42043;46.052;13.612;2022-07-03T12:09:49;4.18;;;1.20;;
56159;SDS011;42043;46.052;13.612;2022-07-03T12:12:15;3.88;;;1.10;;
56159;SDS011;42043;46.052;13.612;2022-07-03T12:17:25;2.72;;;1.08;;
56159;SDS011;42043;46.052;13.612;2022-07-03T12:20:04;2.50;;;1.25;;
56159;SDS011;42043;46.052;13.612;2022-07-03T12:25:10;2.42;;;1.17;;
56159;SDS011;42043;46.052;13.612;2022-07-03T12:27:38;2.30;;;1.10;;
56159;SDS011;42043;46.052;13.612;2022-07-03T12:30:10;3.75;;;1.02;;
56159;SDS011;42043;46.052;13.612;2022-07-03T12:32:38;2.15;;;1.13;;
56159;SDS011;42043;46.052;13.612;2022-07-03T12:35:05;4.68;;;1.20;;
56159;SDS011;42043;46.052;13.612;2022-07-03T12:37:33;2.67;;;1.10;;
56159;SDS011;42043;46.052;13.612;2022-07-03T12:40:00;2.88;;;1.10;;
56159;SDS011;42043;46.052;13.612;2022-07-03T12:42:26;5.68;;;1.20;;
56159;SDS011;42043;46.052;13.612;2022-07-03T12:44:59;2.42;;;1.17;;
56159;SDS011;42043;46.052;13.612;2022-07-03T12:47:27;2.45;;;1.13;;
56159;SDS011;42043;46.052;13.612;2022-07-03T12:52:26;3.10;;;1.08;;
56159;SDS011;42043;46.052;13.612;2022-07-03T12:54:58;2.65;;;1.05;;
56159;SDS011;42043;46.052;13.612;2022-07-03T12:57:27;1.63;;;0.90;;
56159;SDS011;42043;46.052;13.612;2022-07-03T13:00:13;2.35;;;1.00;;
56159;SDS011;42043;46.052;13.612;2022-07-03T13:02:44;4.85;;;0.98;;
56159;SDS011;42043;46.052;13.612;2022-07-03T13:07:45;2.95;;;0.95;;
56159;SDS011;42043;46.052;13.612;2022-07-03T13:10:13;4.43;;;1.08;;
56159;SDS011;42043;46.052;13.612;2022-07-03T13:15:15;4.15;;;1.05;;
56159;SDS011;42043;46.052;13.612;2022-07-03T13:20:17;2.58;;;1.13;;
56159;SDS011;42043;46.052;13.612;2022-07-03T13:22:43;2.72;;;1.02;;
56159;SDS011;42043;46.052;13.612;2022-07-03T13:25:09;2.05;;;0.80;;
56159;SDS011;42043;46.052;13.612;2022-07-03T13:27:35;1.52;;;1.00;;
56159;SDS011;42043;46.052;13.612;2022-07-03T13:30:01;4.15;;;1.17;;
56159;SDS011;42043;46.052;13.612;2022-07-03T13:32:27;3.60;;;0.85;;
56159;SDS011;42043;46.052;13.612;2022-07-03T13:34:53;2.50;;;1.00;;
56159;SDS011;42043;46.052;13.612;2022-07-03T13:37:20;3.50;;;0.98;;
56159;SDS011;42043;46.052;13.612;2022-07-03T13:39:46;3.40;;;0.70;;
56159;SDS011;42043;46.052;13.612;2022-07-03T13:42:12;3.33;;;0.82;;
56159;SDS011;42043;46.052;13.612;2022-07-03T13:44:38;4.78;;;0.80;;
56159;SDS011;42043;46.052;13.612;2022-07-03T13:47:04;2.03;;;0.70;;
56159;SDS011;42043;46.052;13.612;2022-07-03T13:49:33;1.77;;;0.75;;
56159;SDS011;42043;46.052;13.612;2022-07-03T13:51:59;2.28;;;0.80;;
56159;SDS011;42043;46.052;13.612;2022-07-03T13:54:26;4.43;;;1.08;;
56159;SDS011;42043;46.052;13.612;2022-07-03T13:56:52;2.35;;;0.85;;
56159;SDS011;42043;46.052;13.612;2022-07-03T13:59:18;4.88;;;1.05;;
56159;SDS011;42043;46.052;13.612;2022-07-03T14:01:44;3.83;;;1.00;;
56159;SDS011;42043;46.052;13.612;2022-07-03T14:04:10;2.95;;;1.00;;
56159;SDS011;42043;46.052;13.612;2022-07-03T14:06:36;3.83;;;1.00;;
56159;SDS011;42043;46.052;13.612;2022-07-03T14:09:03;3.22;;;1.10;;
56159;SDS011;42043;46.052;13.612;2022-07-03T14:11:29;2.88;;;1.00;;
56159;SDS011;42043;46.052;13.612;2022-07-03T14:13:55;2.67;;;0.90;;
56159;SDS011;42043;46.052;13.612;2022-07-03T14:16:22;3.08;;;1.08;;
56159;SDS011;42043;46.052;13.612;2022-07-03T14:18:48;3.47;;;1.17;;
56159;SDS011;42043;46.052;13.612;2022-07-03T14:21:15;3.13;;;1.10;;
56159;SDS011;42043;46.052;13.612;2022-07-03T14:23:41;5.28;;;1.20;;
56159;SDS011;42043;46.052;13.612;2022-07-03T14:26:07;2.17;;;1.00;;
56159;SDS011;42043;46.052;13.612;2022-07-03T14:28:33;6.32;;;1.20;;
56159;SDS011;42043;46.052;13.612;2022-07-03T14:31:17;5.15;;;1.27;;
56159;SDS011;42043;46.052;13.612;2022-07-03T14:33:52;2.88;;;1.20;;
56159;SDS011;42043;46.052;13.612;2022-07-03T14:36:19;5.47;;;1.10;;
56159;SDS011;42043;46.052;13.612;2022-07-03T14:38:47;5.72;;;0.90;;
56159;SDS011;42043;46.052;13.612;2022-07-03T14:41:13;6.50;;;1.10;;
56159;SDS011;42043;46.052;13.612;2022-07-03T14:43:41;4.10;;;1.30;;
56159;SDS011;42043;46.052;13.612;2022-07-03T14:46:10;8.23;;;1.48;;
56159;SDS011;42043;46.052;13.612;2022-07-03T14:48:36;5.20;;;1.33;;
56159;SDS011;42043;46.052;13.612;2022-07-03T14:51:02;4.05;;;1.00;;
56159;SDS011;42043;46.052;13.612;2022-07-03T14:53:29;7.22;;;1.40;;
56159;SDS011;42043;46.052;13.612;2022-07-03T14:55:54;7.22;;;1.10;;
56159;SDS011;42043;46.052;13.612;2022-07-03T14:58:25;2.15;;;0.80;;
56159;SDS011;42043;46.052;13.612;2022-07-03T15:00:53;4.18;;;1.10;;
56159;SDS011;42043;46.052;13.612;2022-07-03T15:03:33;8.50;;;1.30;;
56159;SDS011;42043;46.052;13.612;2022-07-03T15:06:00;2.65;;;1.17;;
56159;SDS011;42043;46.052;13.612;2022-07-03T15:11:02;6.50;;;1.20;;
56159;SDS011;42043;46.052;13.612;2022-07-03T15:13:30;5.20;;;1.50;;
56159;SDS011;42043;46.052;13.612;2022-07-03T15:15:58;5.72;;;1.33;;
56159;SDS011;42043;46.052;13.612;2022-07-03T15:18:24;4.63;;;1.38;;
56159;SDS011;42043;46.052;13.612;2022-07-03T15:20:52;6.07;;;1.20;;
56159;SDS011;42043;46.052;13.612;2022-07-03T15:23:18;4.70;;;1.42;;
56159;SDS011;42043;46.052;13.612;2022-07-03T15:25:46;2.60;;;1.40;;
56159;SDS011;42043;46.052;13.612;2022-07-03T15:28:15;6.28;;;1.30;;
56159;SDS011;42043;46.052;13.612;2022-07-03T15:30:46;3.95;;;1.60;;
56159;SDS011;42043;46.052;13.612;2022-07-03T15:33:14;5.03;;;1.48;;
56159;SDS011;42043;46.052;13.612;2022-07-03T15:35:45;4.35;;;1.27;;
56159;SDS011;42043;46.052;13.612;2022-07-03T15:38:17;5.28;;;1.45;;
56159;SDS011;42043;46.052;13.612;2022-07-03T15:40:54;3.65;;;1.30;;
56159;SDS011;42043;46.052;13.612;2022-07-03T15:43:25;7.07;;;1.30;;
56159;SDS011;42043;46.052;13.612;2022-07-03T15:46:10;4.95;;;1.60;;
56159;SDS011;42043;46.052;13.612;2022-07-03T15:51:51;4.38;;;1.48;;
56159;SDS011;42043;46.052;13.612;2022-07-03T15:54:30;4.95;;;1.45;;
56159;SDS011;42043;46.052;13.612;2022-07-03T15:57:13;5.05;;;1.17;;
56159;SDS011;42043;46.052;13.612;2022-07-03T15:59:47;7.18;;;1.75;;
56159;SDS011;42043;46.052;13.612;2022-07-03T16:05:37;4.88;;;1.40;;
56159;SDS011;42043;46.052;13.612;2022-07-03T16:08:06;6.97;;;1.70;;
56159;SDS011;42043;46.052;13.612;2022-07-03T16:10:33;5.22;;;1.52;;
56159;SDS011;42043;46.052;13.612;2022-07-03T16:13:00;3.92;;;1.60;;
56159;SDS011;42043;46.052;13.612;2022-07-03T16:15:30;3.13;;;1.20;;
56159;SDS011;42043;46.052;13.612;2022-07-03T16:17:56;3.88;;;1.33;;
56159;SDS011;42043;46.052;13.612;2022-07-03T16:20:24;7.80;;;1.80;;
56159;SDS011;42043;46.052;13.612;2022-07-03T16:22:54;5.97;;;1.30;;
56159;SDS011;42043;46.052;13.612;2022-07-03T16:25:39;6.72;;;1.60;;
56159;SDS011;42043;46.052;13.612;2022-07-03T16:28:10;7.53;;;1.42;;
56159;SDS011;42043;46.052;13.612;2022-07-03T16:30:44;5.15;;;1.98;;
56159;SDS011;42043;46.052;13.612;2022-07-03T16:33:12;6.65;;;2.20;;
56159;SDS011;42043;46.052;13.612;2022-07-03T16:35:46;4.53;;;1.30;;
56159;SDS011;42043;46.052;13.612;2022-07-03T16:38:18;7.82;;;1.60;;
56159;SDS011;42043;46.052;13.612;2022-07-03T16:40:49;4.65;;;1.40;;
56159;SDS011;42043;46.052;13.612;2022-07-03T16:43:16;4.40;;;1.30;;
56159;SDS011;42043;46.052;13.612;2022-07-03T16:45:45;4.22;;;1.45;;